sensor_id;sensor_type;location;lat;lon;timestamp;P1;durP1;ratioP1;P2;durP2;ratioP2
44987;SDS011;35735;52.226;21.254;2022-08-19T00:03:01;15.55;;;9.85;;
44987;SDS011;35735;52.226;21.254;2022-08-19T00:08:03;11.75;;;9.80;;
44987;SDS011;35735;52.226;21.254;2022-08-19T00:13:04;14.87;;;10.32;;
44987;SDS011;35735;52.226;21.254;2022-08-19T00:18:04;11.38;;;9.95;;
44987;SDS011;35735;52.226;21.254;2022-08-19T00:23:05;11.07;;;9.73;;
44987;SDS011;35735;52.226;21.254;2022-08-19T00:28:06;13.15;;;9.80;;
44987;SDS011;35735;52.226;21.254;2022-08-19T00:33:06;11.18;;;9.75;;
44987;SDS011;35735;52.226;21.254;2022-08-19T00:38:07;10.75;;;9.10;;
44987;SDS011;35735;52.226;21.254;2022-08-19T00:43:08;12.88;;;9.68;;
44987;SDS011;35735;52.226;21.254;2022-08-19T00:48:11;11.35;;;9.65;;
44987;SDS011;35735;52.226;21.254;2022-08-19T00:53:12;12.18;;;10.02;;
44987;SDS011;35735;52.226;21.254;2022-08-19T00:58:20;11.45;;;9.50;;
44987;SDS011;35735;52.226;21.254;2022-08-19T01:03:23;10.82;;;9.73;;
44987;SDS011;35735;52.226;21.254;2022-08-19T01:08:24;14.30;;;9.48;;
44987;SDS011;35735;52.226;21.254;2022-08-19T01:13:27;10.80;;;9.70;;
44987;SDS011;35735;52.226;21.254;2022-08-19T01:18:32;12.57;;;9.38;;
44987;SDS011;35735;52.226;21.254;2022-08-19T01:23:38;11.80;;;9.45;;
44987;SDS011;35735;52.226;21.254;2022-08-19T01:28:39;26.00;;;10.38;;
44987;SDS011;35735;52.226;21.254;2022-08-19T01:33:41;48.55;;;11.90;;
44987;SDS011;35735;52.226;21.254;2022-08-19T01:38:43;81.12;;;13.82;;
44987;SDS011;35735;52.226;21.254;2022-08-19T01:43:43;35.60;;;12.02;;
44987;SDS011;35735;52.226;21.254;2022-08-19T01:48:45;39.92;;;11.82;;
44987;SDS011;35735;52.226;21.254;2022-08-19T01:53:47;33.70;;;11.07;;
44987;SDS011;35735;52.226;21.254;2022-08-19T01:58:51;21.70;;;10.32;;
44987;SDS011;35735;52.226;21.254;2022-08-19T02:03:58;19.30;;;10.05;;
44987;SDS011;35735;52.226;21.254;2022-08-19T02:08:59;13.57;;;10.13;;
44987;SDS011;35735;52.226;21.254;2022-08-19T02:14:01;11.38;;;9.65;;
44987;SDS011;35735;52.226;21.254;2022-08-19T02:19:04;13.15;;;9.90;;
44987;SDS011;35735;52.226;21.254;2022-08-19T02:24:04;16.42;;;10.85;;
44987;SDS011;35735;52.226;21.254;2022-08-19T02:29:05;12.88;;;9.70;;
44987;SDS011;35735;52.226;21.254;2022-08-19T02:34:06;11.48;;;9.35;;
44987;SDS011;35735;52.226;21.254;2022-08-19T02:39:06;10.13;;;9.02;;
44987;SDS011;35735;52.226;21.254;2022-08-19T02:44:07;12.82;;;10.20;;
44987;SDS011;35735;52.226;21.254;2022-08-19T02:49:07;10.48;;;9.48;;
44987;SDS011;35735;52.226;21.254;2022-08-19T02:54:09;14.90;;;9.77;;
44987;SDS011;35735;52.226;21.254;2022-08-19T02:59:11;14.00;;;10.43;;
44987;SDS011;35735;52.226;21.254;2022-08-19T03:04:13;14.38;;;10.23;;
44987;SDS011;35735;52.226;21.254;2022-08-19T03:09:15;13.18;;;10.27;;
44987;SDS011;35735;52.226;21.254;2022-08-19T03:14:18;12.93;;;10.40;;
44987;SDS011;35735;52.226;21.254;2022-08-19T03:19:19;17.55;;;11.10;;
44987;SDS011;35735;52.226;21.254;2022-08-19T03:24:20;12.23;;;10.00;;
44987;SDS011;35735;52.226;21.254;2022-08-19T03:29:21;13.43;;;10.43;;
44987;SDS011;35735;52.226;21.254;2022-08-19T03:34:26;16.10;;;10.65;;
44987;SDS011;35735;52.226;21.254;2022-08-19T03:39:29;12.88;;;10.43;;
44987;SDS011;35735;52.226;21.254;2022-08-19T03:44:30;13.23;;;10.68;;
44987;SDS011;35735;52.226;21.254;2022-08-19T03:49:31;11.15;;;10.05;;
44987;SDS011;35735;52.226;21.254;2022-08-19T03:54:33;12.55;;;10.32;;
44987;SDS011;35735;52.226;21.254;2022-08-19T03:59:35;11.20;;;10.07;;
44987;SDS011;35735;52.226;21.254;2022-08-19T04:04:40;18.60;;;11.70;;
44987;SDS011;35735;52.226;21.254;2022-08-19T04:09:42;15.38;;;10.55;;
44987;SDS011;35735;52.226;21.254;2022-08-19T04:14:43;12.50;;;10.68;;
44987;SDS011;35735;52.226;21.254;2022-08-19T04:19:44;12.35;;;9.40;;
44987;SDS011;35735;52.226;21.254;2022-08-19T04:24:44;16.15;;;10.73;;
44987;SDS011;35735;52.226;21.254;2022-08-19T04:29:45;16.48;;;10.23;;
44987;SDS011;35735;52.226;21.254;2022-08-19T04:34:45;14.77;;;10.07;;
44987;SDS011;35735;52.226;21.254;2022-08-19T04:39:46;17.92;;;9.88;;
44987;SDS011;35735;52.226;21.254;2022-08-19T04:44:46;21.33;;;10.60;;
44987;SDS011;35735;52.226;21.254;2022-08-19T04:49:47;18.17;;;10.40;;
44987;SDS011;35735;52.226;21.254;2022-08-19T04:54:47;16.00;;;9.63;;
44987;SDS011;35735;52.226;21.254;2022-08-19T04:59:53;22.83;;;9.75;;
44987;SDS011;35735;52.226;21.254;2022-08-19T05:04:56;12.65;;;8.85;;
44987;SDS011;35735;52.226;21.254;2022-08-19T05:09:58;12.65;;;9.27;;
44987;SDS011;35735;52.226;21.254;2022-08-19T05:14:59;11.32;;;8.52;;
44987;SDS011;35735;52.226;21.254;2022-08-19T05:20:00;12.13;;;8.50;;
44987;SDS011;35735;52.226;21.254;2022-08-19T05:25:04;13.62;;;8.85;;
44987;SDS011;35735;52.226;21.254;2022-08-19T05:30:09;15.98;;;9.02;;
44987;SDS011;35735;52.226;21.254;2022-08-19T05:35:11;16.60;;;8.95;;
44987;SDS011;35735;52.226;21.254;2022-08-19T05:40:12;15.27;;;8.40;;
44987;SDS011;35735;52.226;21.254;2022-08-19T05:45:12;12.68;;;8.88;;
44987;SDS011;35735;52.226;21.254;2022-08-19T05:50:13;11.12;;;8.50;;
44987;SDS011;35735;52.226;21.254;2022-08-19T05:55:14;10.50;;;7.97;;
44987;SDS011;35735;52.226;21.254;2022-08-19T06:00:14;11.25;;;8.15;;
44987;SDS011;35735;52.226;21.254;2022-08-19T06:05:15;17.25;;;8.60;;
44987;SDS011;35735;52.226;21.254;2022-08-19T06:10:16;12.63;;;7.97;;
44987;SDS011;35735;52.226;21.254;2022-08-19T06:15:17;11.20;;;8.30;;
44987;SDS011;35735;52.226;21.254;2022-08-19T06:20:18;13.73;;;8.25;;
44987;SDS011;35735;52.226;21.254;2022-08-19T06:25:18;13.57;;;8.48;;
44987;SDS011;35735;52.226;21.254;2022-08-19T06:30:19;13.70;;;8.70;;
44987;SDS011;35735;52.226;21.254;2022-08-19T06:35:19;14.75;;;9.35;;
44987;SDS011;35735;52.226;21.254;2022-08-19T06:40:20;16.52;;;8.60;;
44987;SDS011;35735;52.226;21.254;2022-08-19T06:45:24;17.45;;;9.82;;
44987;SDS011;35735;52.226;21.254;2022-08-19T06:50:25;10.88;;;8.95;;
44987;SDS011;35735;52.226;21.254;2022-08-19T06:55:25;12.00;;;9.18;;
44987;SDS011;35735;52.226;21.254;2022-08-19T07:00:26;13.57;;;8.35;;
44987;SDS011;35735;52.226;21.254;2022-08-19T07:05:26;13.50;;;8.82;;
44987;SDS011;35735;52.226;21.254;2022-08-19T07:10:27;16.62;;;8.88;;
44987;SDS011;35735;52.226;21.254;2022-08-19T07:15:27;12.27;;;8.25;;
44987;SDS011;35735;52.226;21.254;2022-08-19T07:20:28;14.70;;;8.88;;
44987;SDS011;35735;52.226;21.254;2022-08-19T07:25:28;15.27;;;8.45;;
44987;SDS011;35735;52.226;21.254;2022-08-19T07:30:29;10.07;;;9.02;;
44987;SDS011;35735;52.226;21.254;2022-08-19T07:35:30;12.50;;;8.52;;
44987;SDS011;35735;52.226;21.254;2022-08-19T07:40:31;17.27;;;8.77;;
44987;SDS011;35735;52.226;21.254;2022-08-19T07:45:32;8.80;;;7.90;;
44987;SDS011;35735;52.226;21.254;2022-08-19T07:50:32;15.75;;;8.75;;
44987;SDS011;35735;52.226;21.254;2022-08-19T07:55:33;11.23;;;8.25;;
44987;SDS011;35735;52.226;21.254;2022-08-19T08:00:33;12.27;;;8.85;;
44987;SDS011;35735;52.226;21.254;2022-08-19T08:05:34;14.07;;;8.40;;
44987;SDS011;35735;52.226;21.254;2022-08-19T08:10:35;9.07;;;7.78;;
44987;SDS011;35735;52.226;21.254;2022-08-19T08:15:36;15.48;;;8.05;;
44987;SDS011;35735;52.226;21.254;2022-08-19T08:20:38;10.75;;;8.10;;
44987;SDS011;35735;52.226;21.254;2022-08-19T08:25:38;13.05;;;7.70;;
44987;SDS011;35735;52.226;21.254;2022-08-19T08:30:39;12.07;;;8.27;;
44987;SDS011;35735;52.226;21.254;2022-08-19T08:35:40;10.50;;;8.23;;
44987;SDS011;35735;52.226;21.254;2022-08-19T08:46:22;12.48;;;8.13;;
44987;SDS011;35735;52.226;21.254;2022-08-19T08:51:42;15.45;;;8.57;;
44987;SDS011;35735;52.226;21.254;2022-08-19T08:56:48;13.35;;;7.75;;
44987;SDS011;35735;52.226;21.254;2022-08-19T09:01:49;9.40;;;7.30;;
44987;SDS011;35735;52.226;21.254;2022-08-19T09:06:55;10.43;;;7.37;;
44987;SDS011;35735;52.226;21.254;2022-08-19T09:12:17;11.48;;;8.30;;
44987;SDS011;35735;52.226;21.254;2022-08-19T09:17:42;11.95;;;7.03;;
44987;SDS011;35735;52.226;21.254;2022-08-19T09:22:42;13.80;;;7.72;;
44987;SDS011;35735;52.226;21.254;2022-08-19T09:27:43;16.00;;;7.32;;
44987;SDS011;35735;52.226;21.254;2022-08-19T09:32:44;11.05;;;7.18;;
44987;SDS011;35735;52.226;21.254;2022-08-19T09:37:45;12.35;;;7.40;;
44987;SDS011;35735;52.226;21.254;2022-08-19T09:42:46;11.48;;;6.85;;
44987;SDS011;35735;52.226;21.254;2022-08-19T09:47:47;11.12;;;7.12;;
44987;SDS011;35735;52.226;21.254;2022-08-19T09:52:52;10.57;;;7.28;;
44987;SDS011;35735;52.226;21.254;2022-08-19T09:57:53;14.48;;;7.03;;
44987;SDS011;35735;52.226;21.254;2022-08-19T10:02:53;14.05;;;6.10;;
44987;SDS011;35735;52.226;21.254;2022-08-19T10:07:54;11.70;;;6.40;;
44987;SDS011;35735;52.226;21.254;2022-08-19T10:12:54;7.35;;;5.30;;
44987;SDS011;35735;52.226;21.254;2022-08-19T10:17:55;9.82;;;6.28;;
44987;SDS011;35735;52.226;21.254;2022-08-19T10:22:56;11.15;;;6.20;;
44987;SDS011;35735;52.226;21.254;2022-08-19T10:27:56;10.07;;;6.18;;
44987;SDS011;35735;52.226;21.254;2022-08-19T10:32:57;10.55;;;6.10;;
44987;SDS011;35735;52.226;21.254;2022-08-19T10:37:58;10.77;;;5.80;;
44987;SDS011;35735;52.226;21.254;2022-08-19T10:42:58;10.10;;;6.45;;
44987;SDS011;35735;52.226;21.254;2022-08-19T10:47:59;14.87;;;5.85;;
44987;SDS011;35735;52.226;21.254;2022-08-19T10:53:02;9.27;;;5.70;;
44987;SDS011;35735;52.226;21.254;2022-08-19T10:58:13;12.95;;;5.62;;
44987;SDS011;35735;52.226;21.254;2022-08-19T11:03:16;12.07;;;5.75;;
44987;SDS011;35735;52.226;21.254;2022-08-19T11:08:17;8.90;;;5.68;;
44987;SDS011;35735;52.226;21.254;2022-08-19T11:13:17;10.73;;;5.85;;
44987;SDS011;35735;52.226;21.254;2022-08-19T11:18:18;10.32;;;5.40;;
44987;SDS011;35735;52.226;21.254;2022-08-19T11:23:19;12.90;;;6.20;;
44987;SDS011;35735;52.226;21.254;2022-08-19T11:28:19;12.27;;;5.50;;
44987;SDS011;35735;52.226;21.254;2022-08-19T11:33:20;11.50;;;5.60;;
44987;SDS011;35735;52.226;21.254;2022-08-19T11:38:20;10.98;;;6.25;;
44987;SDS011;35735;52.226;21.254;2022-08-19T11:43:21;9.18;;;5.00;;
44987;SDS011;35735;52.226;21.254;2022-08-19T11:48:21;9.30;;;5.28;;
44987;SDS011;35735;52.226;21.254;2022-08-19T11:53:23;11.18;;;4.85;;
44987;SDS011;35735;52.226;21.254;2022-08-19T11:58:24;9.95;;;5.20;;
44987;SDS011;35735;52.226;21.254;2022-08-19T12:03:25;11.95;;;4.90;;
44987;SDS011;35735;52.226;21.254;2022-08-19T12:08:26;11.38;;;5.85;;
44987;SDS011;35735;52.226;21.254;2022-08-19T12:13:27;10.35;;;5.03;;
44987;SDS011;35735;52.226;21.254;2022-08-19T12:18:29;9.68;;;5.45;;
44987;SDS011;35735;52.226;21.254;2022-08-19T12:23:30;7.53;;;4.80;;
44987;SDS011;35735;52.226;21.254;2022-08-19T12:28:31;10.50;;;5.50;;
44987;SDS011;35735;52.226;21.254;2022-08-19T12:33:32;12.45;;;4.90;;
44987;SDS011;35735;52.226;21.254;2022-08-19T12:38:33;5.53;;;4.45;;
44987;SDS011;35735;52.226;21.254;2022-08-19T12:43:34;9.95;;;4.15;;
44987;SDS011;35735;52.226;21.254;2022-08-19T12:48:35;10.38;;;4.80;;
44987;SDS011;35735;52.226;21.254;2022-08-19T12:53:35;8.23;;;4.75;;
44987;SDS011;35735;52.226;21.254;2022-08-19T12:58:36;8.23;;;4.53;;
44987;SDS011;35735;52.226;21.254;2022-08-19T13:03:37;11.73;;;4.57;;
44987;SDS011;35735;52.226;21.254;2022-08-19T13:08:38;10.13;;;4.60;;
44987;SDS011;35735;52.226;21.254;2022-08-19T13:13:39;9.02;;;4.60;;
44987;SDS011;35735;52.226;21.254;2022-08-19T13:18:42;8.70;;;4.95;;
44987;SDS011;35735;52.226;21.254;2022-08-19T13:23:46;10.05;;;4.95;;
44987;SDS011;35735;52.226;21.254;2022-08-19T13:28:47;9.45;;;4.40;;
44987;SDS011;35735;52.226;21.254;2022-08-19T13:33:47;10.07;;;4.80;;
44987;SDS011;35735;52.226;21.254;2022-08-19T13:38:48;18.87;;;5.50;;
44987;SDS011;35735;52.226;21.254;2022-08-19T13:43:49;9.55;;;4.25;;
44987;SDS011;35735;52.226;21.254;2022-08-19T13:48:49;7.90;;;4.90;;
44987;SDS011;35735;52.226;21.254;2022-08-19T13:53:50;11.12;;;4.65;;
44987;SDS011;35735;52.226;21.254;2022-08-19T13:58:50;11.53;;;4.73;;
44987;SDS011;35735;52.226;21.254;2022-08-19T14:03:51;12.93;;;5.57;;
44987;SDS011;35735;52.226;21.254;2022-08-19T14:08:51;9.33;;;4.80;;
44987;SDS011;35735;52.226;21.254;2022-08-19T14:13:52;11.02;;;5.05;;
44987;SDS011;35735;52.226;21.254;2022-08-19T14:18:52;7.53;;;4.78;;
44987;SDS011;35735;52.226;21.254;2022-08-19T14:23:53;7.37;;;4.55;;
44987;SDS011;35735;52.226;21.254;2022-08-19T14:28:54;7.62;;;4.82;;
44987;SDS011;35735;52.226;21.254;2022-08-19T14:33:54;8.45;;;4.65;;
44987;SDS011;35735;52.226;21.254;2022-08-19T14:38:55;9.98;;;4.93;;
44987;SDS011;35735;52.226;21.254;2022-08-19T14:43:55;14.17;;;4.90;;
44987;SDS011;35735;52.226;21.254;2022-08-19T14:48:57;10.07;;;4.70;;
44987;SDS011;35735;52.226;21.254;2022-08-19T14:53:57;7.25;;;4.37;;
44987;SDS011;35735;52.226;21.254;2022-08-19T14:58:58;8.40;;;4.47;;
44987;SDS011;35735;52.226;21.254;2022-08-19T15:03:58;15.90;;;4.60;;
44987;SDS011;35735;52.226;21.254;2022-08-19T15:08:59;6.40;;;4.37;;
44987;SDS011;35735;52.226;21.254;2022-08-19T15:14:00;8.40;;;4.50;;
44987;SDS011;35735;52.226;21.254;2022-08-19T15:19:01;7.32;;;4.60;;
44987;SDS011;35735;52.226;21.254;2022-08-19T15:24:02;6.78;;;4.53;;
44987;SDS011;35735;52.226;21.254;2022-08-19T15:29:03;7.72;;;4.65;;
44987;SDS011;35735;52.226;21.254;2022-08-19T15:34:04;7.05;;;4.68;;
44987;SDS011;35735;52.226;21.254;2022-08-19T15:39:05;5.82;;;4.32;;
44987;SDS011;35735;52.226;21.254;2022-08-19T15:44:07;9.65;;;4.55;;
44987;SDS011;35735;52.226;21.254;2022-08-19T15:49:11;5.47;;;4.30;;
44987;SDS011;35735;52.226;21.254;2022-08-19T15:54:16;8.07;;;4.80;;
44987;SDS011;35735;52.226;21.254;2022-08-19T15:59:18;14.68;;;4.60;;
44987;SDS011;35735;52.226;21.254;2022-08-19T16:04:19;10.32;;;4.90;;
44987;SDS011;35735;52.226;21.254;2022-08-19T16:09:21;8.77;;;4.10;;
44987;SDS011;35735;52.226;21.254;2022-08-19T16:14:24;11.12;;;4.40;;
44987;SDS011;35735;52.226;21.254;2022-08-19T16:19:25;13.13;;;4.60;;
44987;SDS011;35735;52.226;21.254;2022-08-19T16:24:26;11.23;;;4.60;;
44987;SDS011;35735;52.226;21.254;2022-08-19T16:29:27;6.87;;;4.03;;
44987;SDS011;35735;52.226;21.254;2022-08-19T16:34:28;12.52;;;4.50;;
44987;SDS011;35735;52.226;21.254;2022-08-19T16:39:29;6.25;;;4.45;;
44987;SDS011;35735;52.226;21.254;2022-08-19T16:44:30;10.73;;;4.87;;
44987;SDS011;35735;52.226;21.254;2022-08-19T16:49:31;13.10;;;4.57;;
44987;SDS011;35735;52.226;21.254;2022-08-19T16:54:32;12.27;;;4.80;;
44987;SDS011;35735;52.226;21.254;2022-08-19T16:59:33;9.52;;;4.43;;
44987;SDS011;35735;52.226;21.254;2022-08-19T17:04:34;4.93;;;4.32;;
44987;SDS011;35735;52.226;21.254;2022-08-19T17:09:35;10.60;;;4.50;;
44987;SDS011;35735;52.226;21.254;2022-08-19T17:14:36;6.40;;;4.60;;
44987;SDS011;35735;52.226;21.254;2022-08-19T17:19:37;9.13;;;4.37;;
44987;SDS011;35735;52.226;21.254;2022-08-19T17:24:39;9.25;;;4.55;;
44987;SDS011;35735;52.226;21.254;2022-08-19T17:29:40;10.38;;;4.82;;
44987;SDS011;35735;52.226;21.254;2022-08-19T17:34:40;8.68;;;5.00;;
44987;SDS011;35735;52.226;21.254;2022-08-19T17:39:44;9.80;;;4.80;;
44987;SDS011;35735;52.226;21.254;2022-08-19T17:44:44;9.85;;;5.00;;
44987;SDS011;35735;52.226;21.254;2022-08-19T17:49:45;12.77;;;5.47;;
44987;SDS011;35735;52.226;21.254;2022-08-19T17:54:45;10.65;;;5.00;;
44987;SDS011;35735;52.226;21.254;2022-08-19T17:59:46;11.75;;;5.07;;
44987;SDS011;35735;52.226;21.254;2022-08-19T18:04:47;14.80;;;5.43;;
44987;SDS011;35735;52.226;21.254;2022-08-19T18:09:47;6.68;;;4.47;;
44987;SDS011;35735;52.226;21.254;2022-08-19T18:14:49;9.50;;;4.70;;
44987;SDS011;35735;52.226;21.254;2022-08-19T18:19:50;11.88;;;5.18;;
44987;SDS011;35735;52.226;21.254;2022-08-19T18:24:51;8.18;;;4.68;;
44987;SDS011;35735;52.226;21.254;2022-08-19T18:29:52;12.88;;;4.82;;
44987;SDS011;35735;52.226;21.254;2022-08-19T18:34:53;7.45;;;4.50;;
44987;SDS011;35735;52.226;21.254;2022-08-19T18:39:54;9.60;;;4.87;;
44987;SDS011;35735;52.226;21.254;2022-08-19T18:44:54;8.13;;;4.47;;
44987;SDS011;35735;52.226;21.254;2022-08-19T18:49:55;8.38;;;4.50;;
44987;SDS011;35735;52.226;21.254;2022-08-19T18:54:56;8.98;;;4.85;;
44987;SDS011;35735;52.226;21.254;2022-08-19T18:59:56;10.45;;;4.62;;
44987;SDS011;35735;52.226;21.254;2022-08-19T19:04:57;12.48;;;4.70;;
44987;SDS011;35735;52.226;21.254;2022-08-19T19:09:57;8.50;;;4.78;;
44987;SDS011;35735;52.226;21.254;2022-08-19T19:14:58;8.98;;;4.55;;
44987;SDS011;35735;52.226;21.254;2022-08-19T19:19:58;9.02;;;4.65;;
44987;SDS011;35735;52.226;21.254;2022-08-19T19:24:59;11.30;;;4.70;;
44987;SDS011;35735;52.226;21.254;2022-08-19T19:29:59;12.37;;;4.93;;
44987;SDS011;35735;52.226;21.254;2022-08-19T19:35:00;7.40;;;4.70;;
44987;SDS011;35735;52.226;21.254;2022-08-19T19:40:01;7.40;;;4.30;;
44987;SDS011;35735;52.226;21.254;2022-08-19T19:45:02;7.28;;;4.47;;
44987;SDS011;35735;52.226;21.254;2022-08-19T19:50:03;9.25;;;4.72;;
44987;SDS011;35735;52.226;21.254;2022-08-19T19:55:04;9.60;;;4.40;;
44987;SDS011;35735;52.226;21.254;2022-08-19T20:00:05;10.63;;;4.20;;
44987;SDS011;35735;52.226;21.254;2022-08-19T20:05:07;8.55;;;4.00;;
44987;SDS011;35735;52.226;21.254;2022-08-19T20:10:10;7.05;;;4.00;;
44987;SDS011;35735;52.226;21.254;2022-08-19T20:15:11;14.02;;;4.35;;
44987;SDS011;35735;52.226;21.254;2022-08-19T20:20:12;9.68;;;4.57;;
44987;SDS011;35735;52.226;21.254;2022-08-19T20:25:16;10.07;;;4.78;;
44987;SDS011;35735;52.226;21.254;2022-08-19T20:30:19;7.80;;;4.50;;
44987;SDS011;35735;52.226;21.254;2022-08-19T20:35:21;10.48;;;4.30;;
44987;SDS011;35735;52.226;21.254;2022-08-19T20:40:22;12.27;;;4.68;;
44987;SDS011;35735;52.226;21.254;2022-08-19T20:45:23;9.45;;;4.37;;
44987;SDS011;35735;52.226;21.254;2022-08-19T20:50:24;14.23;;;5.18;;
44987;SDS011;35735;52.226;21.254;2022-08-19T20:55:25;9.40;;;4.95;;
44987;SDS011;35735;52.226;21.254;2022-08-19T21:00:26;8.23;;;4.68;;
44987;SDS011;35735;52.226;21.254;2022-08-19T21:05:27;9.20;;;4.93;;
44987;SDS011;35735;52.226;21.254;2022-08-19T21:10:31;7.82;;;4.80;;
44987;SDS011;35735;52.226;21.254;2022-08-19T21:15:31;9.82;;;4.57;;
44987;SDS011;35735;52.226;21.254;2022-08-19T21:20:32;10.82;;;4.60;;
44987;SDS011;35735;52.226;21.254;2022-08-19T21:25:32;10.23;;;4.85;;
44987;SDS011;35735;52.226;21.254;2022-08-19T21:30:33;8.73;;;4.68;;
44987;SDS011;35735;52.226;21.254;2022-08-19T21:35:34;11.65;;;4.80;;
44987;SDS011;35735;52.226;21.254;2022-08-19T21:40:35;8.98;;;4.90;;
44987;SDS011;35735;52.226;21.254;2022-08-19T21:45:35;10.48;;;4.90;;
44987;SDS011;35735;52.226;21.254;2022-08-19T21:50:36;8.73;;;4.62;;
44987;SDS011;35735;52.226;21.254;2022-08-19T21:55:37;11.65;;;5.10;;
44987;SDS011;35735;52.226;21.254;2022-08-19T22:00:38;11.10;;;5.03;;
44987;SDS011;35735;52.226;21.254;2022-08-19T22:05:38;10.68;;;4.85;;
44987;SDS011;35735;52.226;21.254;2022-08-19T22:10:39;11.88;;;4.95;;
44987;SDS011;35735;52.226;21.254;2022-08-19T22:15:39;9.82;;;5.20;;
44987;SDS011;35735;52.226;21.254;2022-08-19T22:20:40;10.38;;;5.15;;
44987;SDS011;35735;52.226;21.254;2022-08-19T22:25:42;7.40;;;5.00;;
44987;SDS011;35735;52.226;21.254;2022-08-19T22:30:44;14.25;;;5.15;;
44987;SDS011;35735;52.226;21.254;2022-08-19T22:35:46;9.90;;;4.50;;
44987;SDS011;35735;52.226;21.254;2022-08-19T22:40:48;12.55;;;4.35;;
44987;SDS011;35735;52.226;21.254;2022-08-19T22:45:51;14.65;;;5.20;;
44987;SDS011;35735;52.226;21.254;2022-08-19T22:50:56;7.90;;;4.80;;
44987;SDS011;35735;52.226;21.254;2022-08-19T22:55:57;6.60;;;4.53;;
44987;SDS011;35735;52.226;21.254;2022-08-19T23:00:58;8.00;;;4.87;;
44987;SDS011;35735;52.226;21.254;2022-08-19T23:05:59;6.45;;;4.57;;
44987;SDS011;35735;52.226;21.254;2022-08-19T23:11:00;8.48;;;4.57;;
44987;SDS011;35735;52.226;21.254;2022-08-19T23:16:00;12.57;;;5.30;;
44987;SDS011;35735;52.226;21.254;2022-08-19T23:21:01;7.07;;;4.78;;
44987;SDS011;35735;52.226;21.254;2022-08-19T23:26:02;10.25;;;4.72;;
44987;SDS011;35735;52.226;21.254;2022-08-19T23:31:03;9.20;;;5.00;;
44987;SDS011;35735;52.226;21.254;2022-08-19T23:36:06;7.78;;;4.55;;
44987;SDS011;35735;52.226;21.254;2022-08-19T23:41:10;9.35;;;4.93;;
44987;SDS011;35735;52.226;21.254;2022-08-19T23:46:13;10.80;;;4.75;;
44987;SDS011;35735;52.226;21.254;2022-08-19T23:51:15;9.07;;;4.50;;
44987;SDS011;35735;52.226;21.254;2022-08-19T23:56:18;9.75;;;4.65;;
